createdAt,value
2022-09-10T00:00:42.429Z,101127.47
2022-09-10T00:03:43.873Z,101119.13
2022-09-10T00:06:45.410Z,101119.47
2022-09-10T00:09:46.825Z,101106.31
2022-09-10T00:12:48.245Z,101109.63
2022-09-10T00:15:52.612Z,101117.31
2022-09-10T00:18:54.113Z,101111.09
2022-09-10T00:21:55.438Z,101119.69
2022-09-10T00:24:56.842Z,101118.00
2022-09-10T00:27:59.122Z,101123.47
2022-09-10T00:31:03.486Z,101119.47
2022-09-10T00:34:06.007Z,101113.44
2022-09-10T00:37:07.447Z,101118.84
2022-09-10T00:40:09.218Z,101117.97
2022-09-10T00:43:14.559Z,101121.34
2022-09-10T00:46:39.482Z,101123.19
2022-09-10T00:49:46.646Z,101123.38
2022-09-10T00:52:50.911Z,101131.16
2022-09-10T00:55:56.005Z,101127.84
2022-09-10T00:58:57.779Z,101135.63
2022-09-10T01:01:59.198Z,101132.38
2022-09-10T01:05:03.784Z,101137.56
2022-09-10T01:08:05.523Z,101139.44
2022-09-10T01:11:15.839Z,101128.22
2022-09-10T01:14:47.910Z,101133.41
2022-09-10T01:17:49.232Z,101138.44
2022-09-10T01:21:13.016Z,101140.94
2022-09-10T01:24:52.085Z,101137.31
2022-09-10T01:27:58.081Z,101149.91
2022-09-10T01:31:09.758Z,101141.91
2022-09-10T01:34:29.300Z,101149.50
2022-09-10T01:37:32.897Z,101141.66
2022-09-10T01:40:35.674Z,101143.28
2022-09-10T01:43:41.001Z,101147.47
2022-09-10T01:46:54.840Z,101144.78
2022-09-10T01:50:20.660Z,101145.88
2022-09-10T01:53:54.016Z,101143.38
2022-09-10T01:57:18.737Z,101138.41
2022-09-10T02:00:20.898Z,101150.16
2022-09-10T02:03:26.074Z,101139.78
2022-09-10T02:06:31.017Z,101141.66
2022-09-10T02:09:34.205Z,101141.72
2022-09-10T02:12:36.234Z,101143.38
2022-09-10T02:15:57.372Z,101134.22
2022-09-10T02:19:02.263Z,101130.16
2022-09-10T02:22:05.438Z,101133.75
2022-09-10T02:25:07.725Z,101132.03
2022-09-10T02:28:10.118Z,101135.44
2022-09-10T02:31:12.259Z,101135.44
2022-09-10T02:34:13.862Z,101133.75
2022-09-10T02:37:15.298Z,101138.03
2022-09-10T02:40:18.022Z,101128.56
2022-09-10T02:43:19.860Z,101132.59
2022-09-10T02:46:21.883Z,101133.22
2022-09-10T02:49:23.271Z,101136.84
2022-09-10T02:52:25.752Z,101147.59
2022-09-10T02:55:28.140Z,101147.88
2022-09-10T02:58:30.155Z,101145.75
2022-09-10T03:01:32.584Z,101145.13
2022-09-10T03:04:36.929Z,101145.38
2022-09-10T03:07:38.476Z,101147.97
2022-09-10T03:10:39.937Z,101147.25
2022-09-10T03:13:41.640Z,101141.13
2022-09-10T03:16:43.062Z,101141.84
2022-09-10T03:19:44.436Z,101136.75
2022-09-10T03:22:45.773Z,101134.91
2022-09-10T03:25:50.120Z,101133.88
2022-09-10T03:28:56.073Z,101138.34
2022-09-10T03:32:00.136Z,101136.66
2022-09-10T03:35:01.672Z,101139.25
2022-09-10T03:38:03.021Z,101141.84
2022-09-10T03:41:04.537Z,101154.75
2022-09-10T03:44:06.335Z,101160.03
2022-09-10T03:47:07.833Z,101152.53
2022-09-10T03:50:09.641Z,101153.34
2022-09-10T03:53:12.626Z,101152.44
2022-09-10T03:56:14.101Z,101158.53
2022-09-10T03:59:15.626Z,101150.75
2022-09-10T04:02:18.293Z,101146.47
2022-09-10T04:05:21.075Z,101154.38
2022-09-10T04:08:24.095Z,101151.13
2022-09-10T04:11:28.018Z,101159.56
2022-09-10T04:14:31.140Z,101153.63
2022-09-10T04:17:32.478Z,101162.34
2022-09-10T04:20:34.047Z,101151.03
2022-09-10T04:23:41.756Z,101153.63
2022-09-10T04:26:44.234Z,101165.13
2022-09-10T04:29:47.124Z,101163.34
2022-09-10T04:32:50.178Z,101160.75
2022-09-10T04:35:51.599Z,101163.34
2022-09-10T04:38:53.125Z,101165.38
2022-09-10T04:41:54.511Z,101172.16
2022-09-10T04:44:56.391Z,101174.75
2022-09-10T04:47:57.851Z,101167.81
2022-09-10T04:51:15.631Z,101181.69
2022-09-10T04:54:19.573Z,101180.88
2022-09-10T04:57:21.059Z,101187.56
2022-09-10T05:00:22.883Z,101186.59
2022-09-10T05:03:24.645Z,101179.94
2022-09-10T05:06:27.736Z,101184.31
2022-09-10T05:09:30.768Z,101189.50
2022-09-10T05:12:33.913Z,101184.38
2022-09-10T05:15:39.589Z,101189.78
2022-09-10T05:18:41.060Z,101188.91
2022-09-10T05:21:44.696Z,101185.31
2022-09-10T05:24:46.295Z,101186.88
2022-09-10T05:27:47.825Z,101182.81
2022-09-10T05:30:53.205Z,101179.47
2022-09-10T05:33:57.769Z,101182.66
2022-09-10T05:36:59.212Z,101187.66
2022-09-10T05:40:00.790Z,101178.84
2022-09-10T05:43:02.317Z,101183.13
2022-09-10T05:46:04.915Z,101183.22
2022-09-10T05:49:06.410Z,101189.50
2022-09-10T05:52:07.782Z,101188.75
2022-09-10T05:55:09.706Z,101192.31
2022-09-10T05:58:11.243Z,101197.31
2022-09-10T06:01:14.325Z,101203.47
2022-09-10T06:04:18.221Z,101204.25
2022-09-10T06:07:19.758Z,101197.47
2022-09-10T06:10:21.168Z,101202.28
2022-09-10T06:13:26.268Z,101201.75
2022-09-10T06:16:27.763Z,101202.94
2022-09-10T06:19:30.431Z,101211.16
2022-09-10T06:22:33.354Z,101197.28
2022-09-10T06:25:34.811Z,101202.09
2022-09-10T06:28:37.346Z,101203.84
2022-09-10T06:31:40.440Z,101206.59
2022-09-10T06:34:42.535Z,101209.47
2022-09-10T06:37:43.952Z,101207.03
2022-09-10T06:40:57.967Z,101205.53
2022-09-10T06:43:59.479Z,101210.09
2022-09-10T06:47:55.502Z,101211.31
2022-09-10T06:50:31.919Z,101211.88
2022-09-10T06:53:34.924Z,101227.69
2022-09-10T06:56:38.009Z,101221.94
2022-09-10T06:59:39.908Z,101223.41
2022-09-10T07:02:41.416Z,101227.41
2022-09-10T07:05:46.656Z,101229.00
2022-09-10T07:08:48.262Z,101227.00
2022-09-10T07:11:49.616Z,101221.88
2022-09-10T07:14:52.405Z,101228.16
2022-09-10T07:17:54.756Z,101225.56
2022-09-10T07:21:14.165Z,101226.78
2022-09-10T07:24:20.033Z,101232.00
2022-09-10T07:27:33.944Z,101230.31
2022-09-10T07:30:35.367Z,101233.22
2022-09-10T07:33:37.066Z,101230.31
2022-09-10T07:36:38.645Z,101231.53
2022-09-10T07:39:40.077Z,101230.69
2022-09-10T07:42:41.550Z,101232.41
2022-09-10T07:45:43.027Z,101234.94
2022-09-10T07:48:45.182Z,101225.00
2022-09-10T07:51:46.690Z,101227.56
2022-09-10T07:54:48.826Z,101231.13
2022-09-10T07:57:51.142Z,101233.28
2022-09-10T08:00:52.898Z,101220.38
2022-09-10T08:03:58.482Z,101224.97
2022-09-10T08:07:01.031Z,101235.88
2022-09-10T08:10:02.942Z,101230.38
2022-09-10T08:13:04.470Z,101245.53
2022-09-10T08:16:10.580Z,101237.16
2022-09-10T08:19:13.435Z,101242.38
2022-09-10T08:22:14.859Z,101251.75
2022-09-10T08:25:23.008Z,101262.84
2022-09-10T08:28:25.812Z,101264.69
2022-09-10T08:31:28.137Z,101270.38
2022-09-10T08:34:42.663Z,101276.78
2022-09-10T08:37:46.049Z,101282.75
2022-09-10T08:40:50.517Z,101285.50
2022-09-10T08:44:09.624Z,101280.41
2022-09-10T08:47:23.899Z,101283.84
2022-09-10T08:50:37.492Z,101286.53
2022-09-10T08:54:00.599Z,101284.38
2022-09-10T08:57:02.458Z,101297.19
2022-09-10T09:00:05.009Z,101294.69
2022-09-10T09:03:29.276Z,101293.84
2022-09-10T09:06:40.772Z,101297.97
2022-09-10T09:09:42.804Z,101298.09
2022-09-10T09:13:11.190Z,101299.06
2022-09-10T09:16:34.097Z,101305.03
2022-09-10T09:19:44.502Z,101302.03
2022-09-10T09:22:52.957Z,101305.88
2022-09-10T09:26:13.997Z,101308.09
2022-09-10T09:29:35.903Z,101308.09
2022-09-10T09:32:42.360Z,101305.03
2022-09-10T09:35:50.467Z,101308.81
2022-09-10T09:38:52.775Z,101304.63
2022-09-10T09:42:15.395Z,101308.38
2022-09-10T09:45:38.033Z,101312.25
2022-09-10T09:48:41.030Z,101305.59
2022-09-10T09:51:48.250Z,101307.88
2022-09-10T09:55:13.900Z,101307.00
2022-09-10T09:58:22.412Z,101310.22
2022-09-10T10:01:26.243Z,101301.44
2022-09-10T10:04:28.259Z,101307.81
2022-09-10T10:07:32.465Z,101303.38
2022-09-10T10:10:33.992Z,101306.56
2022-09-10T10:13:38.372Z,101305.25
2022-09-10T10:16:39.797Z,101301.53
2022-09-10T10:19:41.189Z,101300.31
2022-09-10T10:22:44.944Z,101298.06
2022-09-10T10:25:46.352Z,101303.63
2022-09-10T10:28:51.128Z,101309.75
2022-09-10T10:31:53.516Z,101297.91
2022-09-10T10:35:30.817Z,101301.34
2022-09-10T10:38:41.109Z,101301.50
2022-09-10T10:42:16.581Z,101298.72
2022-09-10T10:45:35.829Z,101301.22
2022-09-10T10:48:57.776Z,101309.53
2022-09-10T10:52:26.486Z,101306.78
2022-09-10T10:55:38.654Z,101312.84
2022-09-10T10:59:04.897Z,101313.22
2022-09-10T11:02:20.996Z,101310.44
2022-09-10T11:05:33.449Z,101301.59
2022-09-10T11:08:47.974Z,101305.03
2022-09-10T11:11:53.402Z,101301.69
2022-09-10T11:15:02.054Z,101302.63
2022-09-10T11:18:17.946Z,101300.56
2022-09-10T11:21:29.975Z,101297.97
2022-09-10T11:24:42.619Z,101284.44
2022-09-10T11:27:48.907Z,101294.19
2022-09-10T11:30:57.817Z,101295.56
2022-09-10T11:34:12.271Z,101288.66
2022-09-10T11:37:34.697Z,101284.38
2022-09-10T11:40:43.891Z,101285.66
2022-09-10T11:44:11.340Z,101289.72
2022-09-10T11:47:22.448Z,101287.00
2022-09-10T11:50:36.593Z,101289.34
2022-09-10T11:53:37.976Z,101287.50
2022-09-10T11:57:08.382Z,101288.19
2022-09-10T12:00:17.440Z,101288.16
2022-09-10T12:03:40.852Z,101291.13
2022-09-10T12:07:16.294Z,101291.16
2022-09-10T12:10:36.721Z,101279.13
2022-09-10T12:13:38.905Z,101278.94
2022-09-10T12:16:55.708Z,101282.66
2022-09-10T12:20:00.698Z,101269.06
2022-09-10T12:23:02.612Z,101275.97
2022-09-10T12:26:11.529Z,101274.72
2022-09-10T12:29:27.058Z,101276.09
2022-09-10T12:32:29.493Z,101276.50
2022-09-10T12:35:30.779Z,101286.03
2022-09-10T12:38:44.355Z,101285.06
2022-09-10T12:41:45.641Z,101291.13
2022-09-10T12:44:47.175Z,101287.06
2022-09-10T12:47:49.106Z,101287.81
2022-09-10T12:50:56.386Z,101302.50
2022-09-10T12:54:26.429Z,101312.81
2022-09-10T12:57:35.362Z,101305.59
2022-09-10T13:00:42.407Z,101307.88
2022-09-10T13:03:55.142Z,101307.66
2022-09-10T13:07:00.530Z,101303.00
2022-09-10T13:10:22.619Z,101305.88
2022-09-10T13:13:39.100Z,101309.91
2022-09-10T13:16:41.827Z,101311.69
2022-09-10T13:19:43.155Z,101296.97
2022-09-10T13:23:11.763Z,101295.50
2022-09-10T13:26:28.302Z,101296.72
2022-09-10T13:29:34.536Z,101295.88
2022-09-10T13:32:44.103Z,101292.78
2022-09-10T13:35:53.035Z,101291.22
2022-09-10T13:39:13.768Z,101286.34
2022-09-10T13:42:35.758Z,101287.66
2022-09-10T13:45:46.482Z,101286.00
2022-09-10T13:49:10.280Z,101294.56
2022-09-10T13:52:16.235Z,101295.03
2022-09-10T13:55:25.858Z,101288.34
2022-09-10T13:58:34.797Z,101300.94
2022-09-10T14:01:53.557Z,101294.78
2022-09-10T14:04:55.001Z,101289.72
2022-09-10T14:07:59.989Z,101291.00
2022-09-10T14:11:10.443Z,101288.53
2022-09-10T14:14:24.301Z,101288.53
2022-09-10T14:17:30.869Z,101285.84
2022-09-10T14:20:34.586Z,101288.63
2022-09-10T14:23:36.032Z,101292.56
2022-09-10T14:26:37.394Z,101294.03
2022-09-10T14:29:38.725Z,101305.91
2022-09-10T14:32:40.062Z,101310.03
2022-09-10T14:35:44.237Z,101314.16
2022-09-10T14:39:11.350Z,101314.88
2022-09-10T14:42:38.841Z,101318.63
2022-09-10T14:45:45.531Z,101332.38
2022-09-10T14:48:58.920Z,101327.28
2022-09-10T14:52:01.382Z,101325.00
2022-09-10T14:55:02.703Z,101331.16
2022-09-10T14:58:04.552Z,101328.06
2022-09-10T15:01:06.169Z,101326.53
2022-09-10T15:04:13.671Z,101313.28
2022-09-10T15:07:15.029Z,101314.63
2022-09-10T15:10:16.445Z,101316.13
2022-09-10T15:13:17.813Z,101316.19
2022-09-10T15:16:19.153Z,101318.94
2022-09-10T15:19:21.723Z,101323.50
2022-09-10T15:22:28.436Z,101328.19
2022-09-10T15:25:39.168Z,101321.66
2022-09-10T15:28:41.492Z,101329.38
2022-09-10T15:31:42.868Z,101325.41
2022-09-10T15:34:44.285Z,101327.78
2022-09-10T15:37:45.709Z,101324.16
2022-09-10T15:40:49.088Z,101322.38
2022-09-10T15:43:50.461Z,101318.09
2022-09-10T15:46:51.877Z,101319.50
2022-09-10T15:49:53.256Z,101313.53
2022-09-10T15:52:54.653Z,101318.34
2022-09-10T15:55:59.605Z,101316.53
2022-09-10T15:59:00.963Z,101315.66
2022-09-10T16:02:02.449Z,101314.53
2022-09-10T16:05:04.417Z,101310.06
2022-09-10T16:08:05.745Z,101308.16
2022-09-10T16:11:09.257Z,101314.81
2022-09-10T16:14:13.933Z,101304.28
2022-09-10T16:17:15.266Z,101313.75
2022-09-10T16:20:16.709Z,101317.34
2022-09-10T16:23:18.059Z,101323.28
2022-09-10T16:26:23.654Z,101315.34
2022-09-10T16:29:24.990Z,101326.94
2022-09-10T16:32:26.319Z,101323.34
2022-09-10T16:35:27.647Z,101331.53
2022-09-10T16:38:28.994Z,101340.19
2022-09-10T16:41:31.075Z,101348.56
2022-09-10T16:44:32.392Z,101344.13
2022-09-10T16:47:33.875Z,101346.13
2022-09-10T16:50:35.209Z,101345.53
2022-09-10T16:53:37.068Z,101349.72
2022-09-10T16:56:41.063Z,101357.69
2022-09-10T16:59:42.416Z,101362.19
2022-09-10T17:02:43.850Z,101365.19
2022-09-10T17:05:45.365Z,101370.75
2022-09-10T17:08:47.249Z,101373.47
2022-09-10T17:11:48.665Z,101371.59
2022-09-10T17:14:50.077Z,101374.34
2022-09-10T17:17:51.438Z,101373.84
2022-09-10T17:20:52.781Z,101371.56
2022-09-10T17:23:55.434Z,101367.06
2022-09-10T17:26:56.769Z,101364.50
2022-09-10T17:30:01.002Z,101375.94
2022-09-10T17:33:02.424Z,101379.13
2022-09-10T17:36:04.182Z,101378.50
2022-09-10T17:39:05.843Z,101380.66
2022-09-10T17:42:07.290Z,101388.81
2022-09-10T17:45:09.024Z,101396.06
2022-09-10T17:48:10.397Z,101398.13
2022-09-10T17:51:13.340Z,101404.53
2022-09-10T17:54:14.688Z,101401.41
2022-09-10T17:57:16.024Z,101405.00
2022-09-10T18:00:17.470Z,101407.69
2022-09-10T18:03:18.796Z,101412.44
2022-09-10T18:06:20.988Z,101417.78
2022-09-10T18:09:22.420Z,101410.97
2022-09-10T18:12:23.832Z,101410.97
2022-09-10T18:15:25.931Z,101416.63
2022-09-10T18:18:27.277Z,101425.16
2022-09-10T18:21:31.662Z,101433.81
2022-09-10T18:24:33.014Z,101432.34
2022-09-10T18:27:34.352Z,101431.84
2022-09-10T18:30:35.721Z,101430.28
2022-09-10T18:33:39.292Z,101433.00
2022-09-10T18:36:41.257Z,101438.78
2022-09-10T18:39:42.635Z,101450.38
2022-09-10T18:42:46.761Z,101447.34
2022-09-10T18:45:48.253Z,101451.13
2022-09-10T18:48:50.950Z,101450.47
2022-09-10T18:51:54.470Z,101454.47
2022-09-10T18:54:55.805Z,101458.09
2022-09-10T18:57:57.161Z,101456.66
2022-09-10T19:01:10.373Z,101469.28
2022-09-10T19:04:13.997Z,101474.56
2022-09-10T19:07:15.369Z,101479.69
2022-09-10T19:10:16.749Z,101480.53
2022-09-10T19:13:18.129Z,101485.75
2022-09-10T19:16:20.826Z,101497.13
2022-09-10T19:19:28.122Z,101493.25
2022-09-10T19:22:29.462Z,101501.47
2022-09-10T19:25:30.826Z,101507.72
2022-09-10T19:28:33.360Z,101512.50
2022-09-10T19:31:35.114Z,101514.69
2022-09-10T19:34:36.521Z,101513.75
2022-09-10T19:37:37.889Z,101505.81
2022-09-10T19:40:39.510Z,101513.63
2022-09-10T19:43:41.228Z,101513.84
2022-09-10T19:46:42.700Z,101520.84
2022-09-10T19:49:44.104Z,101519.16
2022-09-10T19:52:45.495Z,101520.19
2022-09-10T19:55:46.961Z,101513.59
2022-09-10T19:58:50.612Z,101525.91
2022-09-10T20:01:52.055Z,101531.50
2022-09-10T20:04:53.509Z,101537.56
2022-09-10T20:07:54.858Z,101537.75
2022-09-10T20:10:56.259Z,101538.16
2022-09-10T20:14:02.918Z,101541.91
2022-09-10T20:17:04.279Z,101541.44
2022-09-10T20:20:05.920Z,101535.88
2022-09-10T20:23:07.247Z,101525.66
2022-09-10T20:26:14.350Z,101530.03
2022-09-10T20:29:17.644Z,101537.94
2022-09-10T20:32:19.166Z,101532.81
2022-09-10T20:35:20.482Z,101541.66
2022-09-10T20:38:21.827Z,101541.25
2022-09-10T20:41:24.481Z,101545.78
2022-09-10T20:44:25.843Z,101540.94
2022-09-10T20:47:27.166Z,101552.94
2022-09-10T20:50:28.533Z,101552.94
2022-09-10T20:53:35.823Z,101563.34
2022-09-10T20:56:37.176Z,101569.41
2022-09-10T20:59:38.500Z,101572.56
2022-09-10T21:02:39.899Z,101565.50
2022-09-10T21:05:48.852Z,101570.72
2022-09-10T21:08:50.227Z,101575.00
2022-09-10T21:11:51.544Z,101575.09
2022-09-10T21:14:52.872Z,101569.88
2022-09-10T21:17:54.228Z,101570.81
2022-09-10T21:21:05.140Z,101576.84
2022-09-10T21:24:10.105Z,101573.41
2022-09-10T21:27:11.480Z,101574.34
2022-09-10T21:30:12.885Z,101577.97
2022-09-10T21:33:14.213Z,101583.25
2022-09-10T21:36:18.162Z,101572.84
2022-09-10T21:39:19.533Z,101583.38
2022-09-10T21:42:20.857Z,101590.34
2022-09-10T21:45:26.138Z,101589.41
2022-09-10T21:48:27.937Z,101586.97
2022-09-10T21:51:29.552Z,101588.00
2022-09-10T21:54:30.930Z,101588.88
2022-09-10T21:57:32.273Z,101597.78
2022-09-10T22:00:33.638Z,101598.91
2022-09-10T22:03:34.993Z,101599.13
2022-09-10T22:06:36.718Z,101605.53
2022-09-10T22:09:38.070Z,101601.47
2022-09-10T22:12:39.389Z,101609.25
2022-09-10T22:15:42.313Z,101613.34
2022-09-10T22:18:43.669Z,101610.94
2022-09-10T22:21:45.722Z,101612.63
2022-09-10T22:24:47.035Z,101620.78
2022-09-10T22:27:48.379Z,101621.16
2022-09-10T22:30:49.746Z,101619.56
2022-09-10T22:33:56.643Z,101620.31
2022-09-10T22:36:57.954Z,101618.28
2022-09-10T22:39:59.321Z,101620.63
2022-09-10T22:43:00.675Z,101626.47
2022-09-10T22:46:02.255Z,101623.66
2022-09-10T22:49:04.984Z,101626.19
2022-09-10T22:52:06.307Z,101630.56
2022-09-10T22:55:08.204Z,101638.03
2022-09-10T22:58:09.940Z,101639.78
2022-09-10T23:01:14.454Z,101642.56
2022-09-10T23:04:15.978Z,101640.69
2022-09-10T23:07:17.317Z,101646.84
2022-09-10T23:10:18.816Z,101644.41
2022-09-10T23:13:20.195Z,101656.69
2022-09-10T23:16:33.320Z,101660.09
2022-09-10T23:19:34.668Z,101662.81
2022-09-10T23:22:36.021Z,101656.69
2022-09-10T23:25:37.338Z,101658.72
2022-09-10T23:28:39.302Z,101653.88
2022-09-10T23:31:40.762Z,101661.69
2022-09-10T23:34:42.137Z,101665.03
2022-09-10T23:37:43.462Z,101662.59
2022-09-10T23:40:44.806Z,101664.63
2022-09-10T23:43:46.181Z,101666.84
2022-09-10T23:46:47.585Z,101660.81
2022-09-10T23:49:48.963Z,101664.25
2022-09-10T23:52:50.298Z,101661.81
2022-09-10T23:55:52.062Z,101675.69
2022-09-10T23:58:53.770Z,101674.75
